sensor_id;sensor_type;location;lat;lon;timestamp;temperature;humidity
15013;DHT22;7603;49.432;11.418;2022-08-03T00:01:28;16.50;99.90
15013;DHT22;7603;49.432;11.418;2022-08-03T00:03:54;16.50;99.90
15013;DHT22;7603;49.432;11.418;2022-08-03T00:06:20;16.50;99.90
15013;DHT22;7603;49.432;11.418;2022-08-03T00:08:45;16.50;99.90
15013;DHT22;7603;49.432;11.418;2022-08-03T00:11:11;16.60;99.90
15013;DHT22;7603;49.432;11.418;2022-08-03T00:13:37;16.60;99.90
15013;DHT22;7603;49.432;11.418;2022-08-03T00:16:03;16.50;99.90
15013;DHT22;7603;49.432;11.418;2022-08-03T00:18:28;16.50;99.90
15013;DHT22;7603;49.432;11.418;2022-08-03T00:20:54;16.50;99.90
15013;DHT22;7603;49.432;11.418;2022-08-03T00:23:19;16.50;99.90
15013;DHT22;7603;49.432;11.418;2022-08-03T00:25:45;16.40;99.90
15013;DHT22;7603;49.432;11.418;2022-08-03T00:28:10;16.40;99.90
15013;DHT22;7603;49.432;11.418;2022-08-03T00:30:37;16.40;99.90
15013;DHT22;7603;49.432;11.418;2022-08-03T00:33:03;16.30;99.90
15013;DHT22;7603;49.432;11.418;2022-08-03T00:35:29;16.30;99.90
15013;DHT22;7603;49.432;11.418;2022-08-03T00:37:55;16.30;99.90
15013;DHT22;7603;49.432;11.418;2022-08-03T00:40:21;16.20;99.90
15013;DHT22;7603;49.432;11.418;2022-08-03T00:42:48;16.20;99.90
15013;DHT22;7603;49.432;11.418;2022-08-03T00:45:34;16.10;99.90
15013;DHT22;7603;49.432;11.418;2022-08-03T00:48:01;16.00;99.90
15013;DHT22;7603;49.432;11.418;2022-08-03T00:50:28;15.90;99.90
15013;DHT22;7603;49.432;11.418;2022-08-03T00:52:56;15.90;99.90
15013;DHT22;7603;49.432;11.418;2022-08-03T00:55:22;15.80;99.90
15013;DHT22;7603;49.432;11.418;2022-08-03T00:57:49;15.80;99.90
15013;DHT22;7603;49.432;11.418;2022-08-03T01:00:17;15.70;99.90
15013;DHT22;7603;49.432;11.418;2022-08-03T01:02:44;15.70;99.90
15013;DHT22;7603;49.432;11.418;2022-08-03T01:05:09;15.60;99.90
15013;DHT22;7603;49.432;11.418;2022-08-03T01:10:32;15.50;99.90
15013;DHT22;7603;49.432;11.418;2022-08-03T01:18:20;15.40;99.90
15013;DHT22;7603;49.432;11.418;2022-08-03T01:20:49;15.40;99.90
15013;DHT22;7603;49.432;11.418;2022-08-03T01:31:57;15.20;99.90
15013;DHT22;7603;49.432;11.418;2022-08-03T01:34:27;15.20;99.90
15013;DHT22;7603;49.432;11.418;2022-08-03T01:36:55;15.10;99.90
15013;DHT22;7603;49.432;11.418;2022-08-03T01:39:22;15.10;99.90
15013;DHT22;7603;49.432;11.418;2022-08-03T01:41:54;15.10;99.90
15013;DHT22;7603;49.432;11.418;2022-08-03T01:44:26;15.10;99.90
15013;DHT22;7603;49.432;11.418;2022-08-03T01:46:56;15.10;99.90
15013;DHT22;7603;49.432;11.418;2022-08-03T01:49:23;15.00;99.90
15013;DHT22;7603;49.432;11.418;2022-08-03T01:51:51;15.00;99.90
15013;DHT22;7603;49.432;11.418;2022-08-03T01:54:18;15.00;99.90
15013;DHT22;7603;49.432;11.418;2022-08-03T01:56:45;15.00;99.90
15013;DHT22;7603;49.432;11.418;2022-08-03T01:59:15;15.00;99.90
15013;DHT22;7603;49.432;11.418;2022-08-03T02:01:43;14.90;99.90
15013;DHT22;7603;49.432;11.418;2022-08-03T02:04:12;14.90;99.90
15013;DHT22;7603;49.432;11.418;2022-08-03T02:06:39;14.90;99.90
15013;DHT22;7603;49.432;11.418;2022-08-03T02:09:06;14.90;99.90
15013;DHT22;7603;49.432;11.418;2022-08-03T02:11:33;14.80;99.90
15013;DHT22;7603;49.432;11.418;2022-08-03T02:14:02;14.80;99.90
15013;DHT22;7603;49.432;11.418;2022-08-03T02:16:29;14.80;99.90
15013;DHT22;7603;49.432;11.418;2022-08-03T02:18:56;14.70;99.90
15013;DHT22;7603;49.432;11.418;2022-08-03T02:21:22;14.80;99.90
15013;DHT22;7603;49.432;11.418;2022-08-03T02:23:48;14.70;99.90
15013;DHT22;7603;49.432;11.418;2022-08-03T02:26:16;14.70;99.90
15013;DHT22;7603;49.432;11.418;2022-08-03T02:28:46;14.70;99.90
15013;DHT22;7603;49.432;11.418;2022-08-03T02:31:16;14.70;99.90
15013;DHT22;7603;49.432;11.418;2022-08-03T02:33:47;14.70;99.90
15013;DHT22;7603;49.432;11.418;2022-08-03T02:36:13;14.70;99.90
15013;DHT22;7603;49.432;11.418;2022-08-03T02:38:41;14.70;99.90
15013;DHT22;7603;49.432;11.418;2022-08-03T02:41:14;14.70;99.90
15013;DHT22;7603;49.432;11.418;2022-08-03T02:43:42;14.60;99.90
15013;DHT22;7603;49.432;11.418;2022-08-03T02:46:08;14.60;99.90
15013;DHT22;7603;49.432;11.418;2022-08-03T02:48:37;14.60;99.90
15013;DHT22;7603;49.432;11.418;2022-08-03T02:51:06;14.60;99.90
15013;DHT22;7603;49.432;11.418;2022-08-03T02:53:32;14.60;99.90
15013;DHT22;7603;49.432;11.418;2022-08-03T02:55:59;14.50;99.90
15013;DHT22;7603;49.432;11.418;2022-08-03T02:58:27;14.60;99.90
15013;DHT22;7603;49.432;11.418;2022-08-03T03:00:54;14.60;99.90
15013;DHT22;7603;49.432;11.418;2022-08-03T03:03:20;14.50;99.90
15013;DHT22;7603;49.432;11.418;2022-08-03T03:05:48;14.50;99.90
15013;DHT22;7603;49.432;11.418;2022-08-03T03:08:16;14.50;99.90
15013;DHT22;7603;49.432;11.418;2022-08-03T03:10:43;14.50;99.90
15013;DHT22;7603;49.432;11.418;2022-08-03T03:13:09;14.40;99.90
15013;DHT22;7603;49.432;11.418;2022-08-03T03:15:37;14.50;99.90
15013;DHT22;7603;49.432;11.418;2022-08-03T03:18:04;14.40;99.90
15013;DHT22;7603;49.432;11.418;2022-08-03T03:20:32;14.30;99.90
15013;DHT22;7603;49.432;11.418;2022-08-03T03:23:00;14.30;99.90
15013;DHT22;7603;49.432;11.418;2022-08-03T03:25:29;14.30;99.90
15013;DHT22;7603;49.432;11.418;2022-08-03T03:27:55;14.30;99.90
15013;DHT22;7603;49.432;11.418;2022-08-03T03:30:21;14.30;99.90
15013;DHT22;7603;49.432;11.418;2022-08-03T03:32:46;14.30;99.90
15013;DHT22;7603;49.432;11.418;2022-08-03T03:35:13;14.20;99.90
15013;DHT22;7603;49.432;11.418;2022-08-03T03:37:39;14.20;99.90
15013;DHT22;7603;49.432;11.418;2022-08-03T03:40:05;14.20;99.90
15013;DHT22;7603;49.432;11.418;2022-08-03T03:42:33;14.20;99.90
15013;DHT22;7603;49.432;11.418;2022-08-03T03:45:06;14.20;99.90
15013;DHT22;7603;49.432;11.418;2022-08-03T03:47:33;14.10;99.90
15013;DHT22;7603;49.432;11.418;2022-08-03T03:50:01;14.10;99.90
15013;DHT22;7603;49.432;11.418;2022-08-03T03:52:26;14.20;99.90
15013;DHT22;7603;49.432;11.418;2022-08-03T03:54:52;14.10;99.90
15013;DHT22;7603;49.432;11.418;2022-08-03T03:57:18;14.10;99.90
15013;DHT22;7603;49.432;11.418;2022-08-03T03:59:43;14.10;99.90
15013;DHT22;7603;49.432;11.418;2022-08-03T04:02:10;14.10;99.90
15013;DHT22;7603;49.432;11.418;2022-08-03T04:04:37;14.10;99.90
15013;DHT22;7603;49.432;11.418;2022-08-03T04:07:25;14.10;99.90
15013;DHT22;7603;49.432;11.418;2022-08-03T04:10:13;14.20;99.90
15013;DHT22;7603;49.432;11.418;2022-08-03T04:12:59;14.10;99.90
15013;DHT22;7603;49.432;11.418;2022-08-03T04:15:27;14.20;99.90
15013;DHT22;7603;49.432;11.418;2022-08-03T04:17:56;14.20;99.90
15013;DHT22;7603;49.432;11.418;2022-08-03T04:20:27;14.20;99.90
15013;DHT22;7603;49.432;11.418;2022-08-03T04:22:55;14.30;99.90
15013;DHT22;7603;49.432;11.418;2022-08-03T04:25:26;14.30;99.90
15013;DHT22;7603;49.432;11.418;2022-08-03T04:27:52;14.30;99.90
15013;DHT22;7603;49.432;11.418;2022-08-03T04:30:21;14.40;99.90
15013;DHT22;7603;49.432;11.418;2022-08-03T04:32:48;14.40;99.90
15013;DHT22;7603;49.432;11.418;2022-08-03T04:35:16;14.40;99.90
15013;DHT22;7603;49.432;11.418;2022-08-03T04:37:46;14.40;99.90
15013;DHT22;7603;49.432;11.418;2022-08-03T04:40:33;14.50;99.90
15013;DHT22;7603;49.432;11.418;2022-08-03T04:43:00;14.50;99.90
15013;DHT22;7603;49.432;11.418;2022-08-03T04:45:27;14.60;99.90
15013;DHT22;7603;49.432;11.418;2022-08-03T04:47:54;14.60;99.90
15013;DHT22;7603;49.432;11.418;2022-08-03T04:50:20;14.70;99.90
15013;DHT22;7603;49.432;11.418;2022-08-03T04:52:47;14.80;99.90
15013;DHT22;7603;49.432;11.418;2022-08-03T04:55:28;14.80;99.90
15013;DHT22;7603;49.432;11.418;2022-08-03T04:57:55;14.80;99.90
15013;DHT22;7603;49.432;11.418;2022-08-03T05:00:21;14.90;99.90
15013;DHT22;7603;49.432;11.418;2022-08-03T05:02:46;15.00;99.90
15013;DHT22;7603;49.432;11.418;2022-08-03T05:05:12;15.10;99.90
15013;DHT22;7603;49.432;11.418;2022-08-03T05:07:38;15.10;99.90
15013;DHT22;7603;49.432;11.418;2022-08-03T05:10:05;15.30;99.90
15013;DHT22;7603;49.432;11.418;2022-08-03T05:12:31;15.30;99.90
15013;DHT22;7603;49.432;11.418;2022-08-03T05:14:57;15.40;99.90
15013;DHT22;7603;49.432;11.418;2022-08-03T05:17:22;15.50;99.90
15013;DHT22;7603;49.432;11.418;2022-08-03T05:19:48;15.60;99.90
15013;DHT22;7603;49.432;11.418;2022-08-03T05:22:14;15.80;99.90
15013;DHT22;7603;49.432;11.418;2022-08-03T05:24:39;15.90;99.90
15013;DHT22;7603;49.432;11.418;2022-08-03T05:27:05;16.10;99.90
15013;DHT22;7603;49.432;11.418;2022-08-03T05:29:30;16.20;99.90
15013;DHT22;7603;49.432;11.418;2022-08-03T05:31:56;16.30;99.90
15013;DHT22;7603;49.432;11.418;2022-08-03T05:34:21;16.50;99.90
15013;DHT22;7603;49.432;11.418;2022-08-03T05:36:47;16.60;99.90
15013;DHT22;7603;49.432;11.418;2022-08-03T05:39:13;16.80;99.90
15013;DHT22;7603;49.432;11.418;2022-08-03T05:41:38;17.00;99.90
15013;DHT22;7603;49.432;11.418;2022-08-03T05:44:04;17.10;99.90
15013;DHT22;7603;49.432;11.418;2022-08-03T05:46:30;17.30;99.90
15013;DHT22;7603;49.432;11.418;2022-08-03T05:48:56;17.40;99.90
15013;DHT22;7603;49.432;11.418;2022-08-03T05:51:21;17.70;99.90
15013;DHT22;7603;49.432;11.418;2022-08-03T05:53:47;17.90;99.90
15013;DHT22;7603;49.432;11.418;2022-08-03T05:56:13;18.10;99.90
15013;DHT22;7603;49.432;11.418;2022-08-03T05:58:38;18.30;99.90
15013;DHT22;7603;49.432;11.418;2022-08-03T06:01:04;18.50;99.90
15013;DHT22;7603;49.432;11.418;2022-08-03T06:03:29;18.70;99.90
15013;DHT22;7603;49.432;11.418;2022-08-03T06:05:55;18.90;99.90
15013;DHT22;7603;49.432;11.418;2022-08-03T06:08:21;19.20;99.90
15013;DHT22;7603;49.432;11.418;2022-08-03T06:10:48;19.40;99.90
15013;DHT22;7603;49.432;11.418;2022-08-03T06:13:13;19.60;99.90
15013;DHT22;7603;49.432;11.418;2022-08-03T06:15:39;19.80;99.90
15013;DHT22;7603;49.432;11.418;2022-08-03T06:18:05;20.00;99.90
15013;DHT22;7603;49.432;11.418;2022-08-03T06:20:32;20.20;99.90
15013;DHT22;7603;49.432;11.418;2022-08-03T06:22:57;20.40;99.90
15013;DHT22;7603;49.432;11.418;2022-08-03T06:25:25;20.60;99.90
15013;DHT22;7603;49.432;11.418;2022-08-03T06:27:50;20.90;99.90
15013;DHT22;7603;49.432;11.418;2022-08-03T06:30:16;21.10;99.90
15013;DHT22;7603;49.432;11.418;2022-08-03T06:32:43;21.20;99.90
15013;DHT22;7603;49.432;11.418;2022-08-03T06:35:09;21.40;99.90
15013;DHT22;7603;49.432;11.418;2022-08-03T06:37:46;21.60;99.90
15013;DHT22;7603;49.432;11.418;2022-08-03T06:40:14;21.90;99.90
15013;DHT22;7603;49.432;11.418;2022-08-03T06:42:41;22.10;99.90
15013;DHT22;7603;49.432;11.418;2022-08-03T06:45:07;22.30;99.90
15013;DHT22;7603;49.432;11.418;2022-08-03T06:47:34;22.50;99.90
15013;DHT22;7603;49.432;11.418;2022-08-03T06:50:00;22.70;99.90
15013;DHT22;7603;49.432;11.418;2022-08-03T06:52:27;22.90;99.90
15013;DHT22;7603;49.432;11.418;2022-08-03T06:54:52;23.10;99.90
15013;DHT22;7603;49.432;11.418;2022-08-03T06:57:18;23.30;99.90
15013;DHT22;7603;49.432;11.418;2022-08-03T06:59:43;23.50;99.90
15013;DHT22;7603;49.432;11.418;2022-08-03T07:02:09;23.60;99.90
15013;DHT22;7603;49.432;11.418;2022-08-03T07:04:36;23.80;99.90
15013;DHT22;7603;49.432;11.418;2022-08-03T07:07:01;24.00;99.90
15013;DHT22;7603;49.432;11.418;2022-08-03T07:09:27;24.10;99.90
15013;DHT22;7603;49.432;11.418;2022-08-03T07:11:53;24.30;99.90
15013;DHT22;7603;49.432;11.418;2022-08-03T07:14:20;24.50;99.90
15013;DHT22;7603;49.432;11.418;2022-08-03T07:16:45;24.70;99.90
15013;DHT22;7603;49.432;11.418;2022-08-03T07:19:11;24.80;99.90
15013;DHT22;7603;49.432;11.418;2022-08-03T07:21:36;25.00;99.90
15013;DHT22;7603;49.432;11.418;2022-08-03T07:24:02;25.10;99.90
15013;DHT22;7603;49.432;11.418;2022-08-03T07:26:28;25.30;99.90
15013;DHT22;7603;49.432;11.418;2022-08-03T07:28:54;25.40;99.90
15013;DHT22;7603;49.432;11.418;2022-08-03T07:31:19;25.50;99.90
15013;DHT22;7603;49.432;11.418;2022-08-03T07:33:45;25.70;99.90
15013;DHT22;7603;49.432;11.418;2022-08-03T07:36:11;25.80;99.90
15013;DHT22;7603;49.432;11.418;2022-08-03T07:38:36;26.00;99.90
15013;DHT22;7603;49.432;11.418;2022-08-03T07:41:02;26.10;99.90
15013;DHT22;7603;49.432;11.418;2022-08-03T07:43:28;26.30;99.90
15013;DHT22;7603;49.432;11.418;2022-08-03T07:45:54;26.40;99.90
15013;DHT22;7603;49.432;11.418;2022-08-03T07:48:19;26.50;99.90
15013;DHT22;7603;49.432;11.418;2022-08-03T07:50:45;26.60;99.90
15013;DHT22;7603;49.432;11.418;2022-08-03T07:53:11;26.70;99.70
15013;DHT22;7603;49.432;11.418;2022-08-03T07:55:37;26.80;98.70
15013;DHT22;7603;49.432;11.418;2022-08-03T07:58:05;26.90;97.30
15013;DHT22;7603;49.432;11.418;2022-08-03T08:00:31;27.00;97.00
15013;DHT22;7603;49.432;11.418;2022-08-03T08:02:57;27.10;96.80
15013;DHT22;7603;49.432;11.418;2022-08-03T08:05:22;27.30;96.40
15013;DHT22;7603;49.432;11.418;2022-08-03T08:07:48;27.40;96.00
15013;DHT22;7603;49.432;11.418;2022-08-03T08:10:14;27.50;94.90
15013;DHT22;7603;49.432;11.418;2022-08-03T08:12:40;27.50;93.90
15013;DHT22;7603;49.432;11.418;2022-08-03T08:15:07;27.60;93.20
15013;DHT22;7603;49.432;11.418;2022-08-03T08:17:47;27.70;92.30
15013;DHT22;7603;49.432;11.418;2022-08-03T08:20:18;27.80;91.40
15013;DHT22;7603;49.432;11.418;2022-08-03T08:22:44;27.80;91.00
15013;DHT22;7603;49.432;11.418;2022-08-03T08:25:10;27.90;91.20
15013;DHT22;7603;49.432;11.418;2022-08-03T08:27:47;28.00;91.30
15013;DHT22;7603;49.432;11.418;2022-08-03T08:30:15;28.10;90.60
15013;DHT22;7603;49.432;11.418;2022-08-03T08:32:42;28.20;88.30
15013;DHT22;7603;49.432;11.418;2022-08-03T08:35:08;28.30;86.40
15013;DHT22;7603;49.432;11.418;2022-08-03T08:37:34;28.30;86.40
15013;DHT22;7603;49.432;11.418;2022-08-03T08:40:00;28.40;84.00
15013;DHT22;7603;49.432;11.418;2022-08-03T08:42:26;28.40;84.60
15013;DHT22;7603;49.432;11.418;2022-08-03T08:44:52;28.50;84.70
15013;DHT22;7603;49.432;11.418;2022-08-03T08:47:24;28.60;83.60
15013;DHT22;7603;49.432;11.418;2022-08-03T08:49:52;28.70;83.40
15013;DHT22;7603;49.432;11.418;2022-08-03T08:52:24;28.80;82.30
15013;DHT22;7603;49.432;11.418;2022-08-03T08:54:52;28.80;81.50
15013;DHT22;7603;49.432;11.418;2022-08-03T08:57:21;28.90;79.60
15013;DHT22;7603;49.432;11.418;2022-08-03T08:59:47;29.00;78.70
15013;DHT22;7603;49.432;11.418;2022-08-03T09:02:13;29.20;77.80
15013;DHT22;7603;49.432;11.418;2022-08-03T09:04:39;29.40;74.60
15013;DHT22;7603;49.432;11.418;2022-08-03T09:07:04;29.60;73.00
15013;DHT22;7603;49.432;11.418;2022-08-03T09:09:30;29.80;72.50
15013;DHT22;7603;49.432;11.418;2022-08-03T09:11:56;30.10;72.20
15013;DHT22;7603;49.432;11.418;2022-08-03T09:14:22;30.40;70.80
15013;DHT22;7603;49.432;11.418;2022-08-03T09:16:55;30.80;67.20
15013;DHT22;7603;49.432;11.418;2022-08-03T09:19:24;31.20;64.80
15013;DHT22;7603;49.432;11.418;2022-08-03T09:22:13;31.50;63.80
15013;DHT22;7603;49.432;11.418;2022-08-03T09:25:01;32.00;60.40
15013;DHT22;7603;49.432;11.418;2022-08-03T09:27:28;32.40;59.00
15013;DHT22;7603;49.432;11.418;2022-08-03T09:29:54;32.80;58.90
15013;DHT22;7603;49.432;11.418;2022-08-03T09:32:22;33.20;56.30
15013;DHT22;7603;49.432;11.418;2022-08-03T09:34:49;33.60;55.10
15013;DHT22;7603;49.432;11.418;2022-08-03T09:37:17;33.90;54.00
15013;DHT22;7603;49.432;11.418;2022-08-03T09:39:43;34.20;52.20
15013;DHT22;7603;49.432;11.418;2022-08-03T09:42:17;34.40;51.70
15013;DHT22;7603;49.432;11.418;2022-08-03T09:44:48;34.60;50.90
15013;DHT22;7603;49.432;11.418;2022-08-03T09:47:31;34.90;50.30
15013;DHT22;7603;49.432;11.418;2022-08-03T09:50:02;35.10;49.40
15013;DHT22;7603;49.432;11.418;2022-08-03T09:52:34;35.30;49.00
15013;DHT22;7603;49.432;11.418;2022-08-03T09:55:02;35.40;47.70
15013;DHT22;7603;49.432;11.418;2022-08-03T09:57:32;35.40;46.90
15013;DHT22;7603;49.432;11.418;2022-08-03T10:00:16;35.30;46.70
15013;DHT22;7603;49.432;11.418;2022-08-03T10:02:43;35.10;45.90
15013;DHT22;7603;49.432;11.418;2022-08-03T10:05:11;35.10;45.20
15013;DHT22;7603;49.432;11.418;2022-08-03T10:07:55;34.90;44.60
15013;DHT22;7603;49.432;11.418;2022-08-03T10:10:21;34.70;44.60
15013;DHT22;7603;49.432;11.418;2022-08-03T10:12:47;34.50;45.40
15013;DHT22;7603;49.432;11.418;2022-08-03T10:15:13;34.60;45.90
15013;DHT22;7603;49.432;11.418;2022-08-03T10:17:39;34.70;45.40
15013;DHT22;7603;49.432;11.418;2022-08-03T10:20:05;35.00;45.10
15013;DHT22;7603;49.432;11.418;2022-08-03T10:22:33;35.20;43.90
15013;DHT22;7603;49.432;11.418;2022-08-03T10:25:06;35.70;43.10
15013;DHT22;7603;49.432;11.418;2022-08-03T10:27:40;36.60;41.50
15013;DHT22;7603;49.432;11.418;2022-08-03T10:30:08;37.70;40.70
15013;DHT22;7603;49.432;11.418;2022-08-03T10:32:40;38.80;39.00
15013;DHT22;7603;49.432;11.418;2022-08-03T10:35:12;39.70;37.70
15013;DHT22;7603;49.432;11.418;2022-08-03T10:38:07;40.50;37.00
15013;DHT22;7603;49.432;11.418;2022-08-03T10:40:35;41.70;34.20
15013;DHT22;7603;49.432;11.418;2022-08-03T10:43:09;42.90;33.90
15013;DHT22;7603;49.432;11.418;2022-08-03T10:45:40;44.10;32.10
15013;DHT22;7603;49.432;11.418;2022-08-03T10:48:07;44.90;31.10
15013;DHT22;7603;49.432;11.418;2022-08-03T10:50:33;45.50;30.40
15013;DHT22;7603;49.432;11.418;2022-08-03T10:53:03;46.40;29.60
15013;DHT22;7603;49.432;11.418;2022-08-03T10:55:38;47.20;29.50
15013;DHT22;7603;49.432;11.418;2022-08-03T11:03:28;49.50;27.00
15013;DHT22;7603;49.432;11.418;2022-08-03T11:06:13;50.10;26.40
15013;DHT22;7603;49.432;11.418;2022-08-03T11:08:43;50.60;25.40
15013;DHT22;7603;49.432;11.418;2022-08-03T11:14:17;51.60;25.00
15013;DHT22;7603;49.432;11.418;2022-08-03T11:17:05;52.30;24.10
15013;DHT22;7603;49.432;11.418;2022-08-03T11:19:47;52.90;24.10
15013;DHT22;7603;49.432;11.418;2022-08-03T11:22:14;53.50;23.40
15013;DHT22;7603;49.432;11.418;2022-08-03T11:24:55;53.70;23.40
15013;DHT22;7603;49.432;11.418;2022-08-03T11:27:22;54.00;22.90
15013;DHT22;7603;49.432;11.418;2022-08-03T11:30:08;53.90;22.30
15013;DHT22;7603;49.432;11.418;2022-08-03T11:35:21;53.90;22.30
15013;DHT22;7603;49.432;11.418;2022-08-03T11:40:47;55.20;21.80
15013;DHT22;7603;49.432;11.418;2022-08-03T11:48:41;54.80;21.60
15013;DHT22;7603;49.432;11.418;2022-08-03T11:51:22;54.80;21.60
15013;DHT22;7603;49.432;11.418;2022-08-03T11:53:55;55.10;21.60
15013;DHT22;7603;49.432;11.418;2022-08-03T11:56:21;55.60;21.80
15013;DHT22;7603;49.432;11.418;2022-08-03T11:58:49;55.90;21.20
15013;DHT22;7603;49.432;11.418;2022-08-03T12:01:17;55.70;21.00
15013;DHT22;7603;49.432;11.418;2022-08-03T12:03:43;55.50;20.90
15013;DHT22;7603;49.432;11.418;2022-08-03T12:06:10;55.30;20.80
15013;DHT22;7603;49.432;11.418;2022-08-03T12:08:36;55.50;20.80
15013;DHT22;7603;49.432;11.418;2022-08-03T12:11:04;56.00;20.90
15013;DHT22;7603;49.432;11.418;2022-08-03T12:13:45;56.60;20.70
15013;DHT22;7603;49.432;11.418;2022-08-03T12:16:17;56.90;20.10
15013;DHT22;7603;49.432;11.418;2022-08-03T12:18:44;57.40;20.30
15013;DHT22;7603;49.432;11.418;2022-08-03T12:21:11;57.90;20.30
15013;DHT22;7603;49.432;11.418;2022-08-03T12:23:38;58.00;20.20
15013;DHT22;7603;49.432;11.418;2022-08-03T12:26:07;58.10;20.20
15013;DHT22;7603;49.432;11.418;2022-08-03T12:28:33;57.90;20.10
15013;DHT22;7603;49.432;11.418;2022-08-03T12:31:04;56.90;20.10
15013;DHT22;7603;49.432;11.418;2022-08-03T12:33:32;56.40;20.30
15013;DHT22;7603;49.432;11.418;2022-08-03T12:36:18;56.20;20.40
15013;DHT22;7603;49.432;11.418;2022-08-03T12:38:56;55.70;20.30
15013;DHT22;7603;49.432;11.418;2022-08-03T12:41:51;55.20;20.40
15013;DHT22;7603;49.432;11.418;2022-08-03T12:44:17;55.40;20.70
15013;DHT22;7603;49.432;11.418;2022-08-03T12:46:42;56.20;20.60
15013;DHT22;7603;49.432;11.418;2022-08-03T12:49:11;56.80;20.30
15013;DHT22;7603;49.432;11.418;2022-08-03T12:51:58;57.40;20.10
15013;DHT22;7603;49.432;11.418;2022-08-03T12:54:26;57.90;19.50
15013;DHT22;7603;49.432;11.418;2022-08-03T12:57:01;58.30;19.30
15013;DHT22;7603;49.432;11.418;2022-08-03T12:59:32;58.50;19.10
15013;DHT22;7603;49.432;11.418;2022-08-03T13:01:59;58.30;19.00
15013;DHT22;7603;49.432;11.418;2022-08-03T13:04:29;58.30;19.10
15013;DHT22;7603;49.432;11.418;2022-08-03T13:07:06;58.50;19.20
15013;DHT22;7603;49.432;11.418;2022-08-03T13:09:43;58.80;18.90
15013;DHT22;7603;49.432;11.418;2022-08-03T13:12:18;58.90;18.60
15013;DHT22;7603;49.432;11.418;2022-08-03T13:14:46;59.20;18.60
15013;DHT22;7603;49.432;11.418;2022-08-03T13:17:12;59.00;18.80
15013;DHT22;7603;49.432;11.418;2022-08-03T13:19:41;58.70;19.00
15013;DHT22;7603;49.432;11.418;2022-08-03T13:24:39;58.00;18.50
15013;DHT22;7603;49.432;11.418;2022-08-03T13:27:05;58.00;18.70
15013;DHT22;7603;49.432;11.418;2022-08-03T13:29:32;58.50;19.00
15013;DHT22;7603;49.432;11.418;2022-08-03T13:31:59;58.70;19.00
15013;DHT22;7603;49.432;11.418;2022-08-03T13:34:24;58.70;18.90
15013;DHT22;7603;49.432;11.418;2022-08-03T13:36:51;58.80;18.90
15013;DHT22;7603;49.432;11.418;2022-08-03T13:39:17;58.80;18.80
15013;DHT22;7603;49.432;11.418;2022-08-03T13:41:44;58.80;18.80
15013;DHT22;7603;49.432;11.418;2022-08-03T13:44:10;58.10;18.80
15013;DHT22;7603;49.432;11.418;2022-08-03T13:46:36;57.70;19.00
15013;DHT22;7603;49.432;11.418;2022-08-03T13:49:01;58.10;19.00
15013;DHT22;7603;49.432;11.418;2022-08-03T13:51:27;58.90;19.00
15013;DHT22;7603;49.432;11.418;2022-08-03T13:53:53;59.60;18.60
15013;DHT22;7603;49.432;11.418;2022-08-03T13:56:18;60.20;18.30
15013;DHT22;7603;49.432;11.418;2022-08-03T13:58:44;60.10;18.10
15013;DHT22;7603;49.432;11.418;2022-08-03T14:01:10;59.80;18.00
15013;DHT22;7603;49.432;11.418;2022-08-03T14:03:35;59.60;18.00
15013;DHT22;7603;49.432;11.418;2022-08-03T14:06:01;60.10;17.90
15013;DHT22;7603;49.432;11.418;2022-08-03T14:08:27;60.60;17.90
15013;DHT22;7603;49.432;11.418;2022-08-03T14:10:52;61.10;17.90
15013;DHT22;7603;49.432;11.418;2022-08-03T14:13:18;61.30;17.80
15013;DHT22;7603;49.432;11.418;2022-08-03T14:15:47;61.30;17.60
15013;DHT22;7603;49.432;11.418;2022-08-03T14:18:13;60.70;17.70
15013;DHT22;7603;49.432;11.418;2022-08-03T14:20:38;60.00;18.10
15013;DHT22;7603;49.432;11.418;2022-08-03T14:23:04;59.70;18.10
15013;DHT22;7603;49.432;11.418;2022-08-03T14:25:31;58.90;18.10
15013;DHT22;7603;49.432;11.418;2022-08-03T14:27:56;58.30;18.30
15013;DHT22;7603;49.432;11.418;2022-08-03T14:30:22;57.60;18.60
15013;DHT22;7603;49.432;11.418;2022-08-03T14:32:48;57.80;18.50
15013;DHT22;7603;49.432;11.418;2022-08-03T14:35:13;58.00;18.50
15013;DHT22;7603;49.432;11.418;2022-08-03T14:37:39;57.50;18.40
15013;DHT22;7603;49.432;11.418;2022-08-03T14:40:05;57.90;18.40
15013;DHT22;7603;49.432;11.418;2022-08-03T14:42:31;58.70;18.30
15013;DHT22;7603;49.432;11.418;2022-08-03T14:44:56;59.50;18.10
15013;DHT22;7603;49.432;11.418;2022-08-03T14:47:22;59.30;17.90
15013;DHT22;7603;49.432;11.418;2022-08-03T14:49:48;58.80;18.00
15013;DHT22;7603;49.432;11.418;2022-08-03T14:52:13;58.50;18.20
15013;DHT22;7603;49.432;11.418;2022-08-03T14:54:39;58.60;18.30
15013;DHT22;7603;49.432;11.418;2022-08-03T14:57:04;59.40;18.30
15013;DHT22;7603;49.432;11.418;2022-08-03T14:59:30;60.50;18.10
15013;DHT22;7603;49.432;11.418;2022-08-03T15:01:55;61.20;17.90
15013;DHT22;7603;49.432;11.418;2022-08-03T15:04:21;62.10;17.80
15013;DHT22;7603;49.432;11.418;2022-08-03T15:06:47;61.90;17.80
15013;DHT22;7603;49.432;11.418;2022-08-03T15:09:12;61.30;18.00
15013;DHT22;7603;49.432;11.418;2022-08-03T15:11:38;61.10;17.80
15013;DHT22;7603;49.432;11.418;2022-08-03T15:14:04;60.60;17.90
15013;DHT22;7603;49.432;11.418;2022-08-03T15:16:30;60.60;17.90
15013;DHT22;7603;49.432;11.418;2022-08-03T15:18:56;60.20;17.70
15013;DHT22;7603;49.432;11.418;2022-08-03T15:21:22;60.20;17.90
15013;DHT22;7603;49.432;11.418;2022-08-03T15:23:47;60.20;17.80
15013;DHT22;7603;49.432;11.418;2022-08-03T15:26:13;60.50;17.80
15013;DHT22;7603;49.432;11.418;2022-08-03T15:28:38;60.90;17.70
15013;DHT22;7603;49.432;11.418;2022-08-03T15:31:04;61.20;17.80
15013;DHT22;7603;49.432;11.418;2022-08-03T15:33:31;61.30;17.80
15013;DHT22;7603;49.432;11.418;2022-08-03T15:35:56;61.50;17.70
15013;DHT22;7603;49.432;11.418;2022-08-03T15:38:22;61.70;17.60
15013;DHT22;7603;49.432;11.418;2022-08-03T15:40:48;61.90;17.50
15013;DHT22;7603;49.432;11.418;2022-08-03T15:43:13;62.20;17.60
15013;DHT22;7603;49.432;11.418;2022-08-03T15:45:40;62.30;17.40
15013;DHT22;7603;49.432;11.418;2022-08-03T15:48:07;62.50;17.40
15013;DHT22;7603;49.432;11.418;2022-08-03T15:50:33;62.40;17.40
15013;DHT22;7603;49.432;11.418;2022-08-03T15:52:58;62.40;17.40
15013;DHT22;7603;49.432;11.418;2022-08-03T15:55:24;62.50;17.50
15013;DHT22;7603;49.432;11.418;2022-08-03T15:57:50;62.50;17.50
15013;DHT22;7603;49.432;11.418;2022-08-03T16:00:15;62.20;17.50
15013;DHT22;7603;49.432;11.418;2022-08-03T16:02:41;61.80;17.60
15013;DHT22;7603;49.432;11.418;2022-08-03T16:05:07;61.60;17.50
15013;DHT22;7603;49.432;11.418;2022-08-03T16:07:33;61.40;17.70
15013;DHT22;7603;49.432;11.418;2022-08-03T16:10:15;61.30;17.90
15013;DHT22;7603;49.432;11.418;2022-08-03T16:12:41;60.60;18.00
15013;DHT22;7603;49.432;11.418;2022-08-03T16:15:08;60.40;18.20